Time;durP1;ratioP1;P1;durP2;ratioP2;P2;SDS_P1;SDS_P2;PMS_P1;PMS_P2;Temp;Humidity;BMP_temperature;BMP_pressure;BME280_temperature;BME280_humidity;BME280_pressure;Samples;Min_cycle;Max_cycle;Signal;HPM_P1;HPM_P2
2023/06/23 00:01:20;;;;;;;7.75;6.38;;;16.30;99.90;;;;;;4991895;28;20207;-84
2023/06/23 00:03:46;;;;;;;7.35;5.85;;;16.30;99.90;;;;;;5027927;28;20025;-86
2023/06/23 00:06:13;;;;;;;8.05;6.05;;;16.30;99.90;;;;;;4994137;28;20541;-87
2023/06/23 00:08:41;;;;;;;8.93;5.60;;;16.30;99.90;;;;;;4995555;28;20030;-89
2023/06/23 00:11:10;;;;;;;9.48;5.65;;;16.30;99.90;;;;;;4992070;28;20064;-87
2023/06/23 00:13:37;;;;;;;10.33;6.37;;;16.20;99.90;;;;;;5011258;28;20034;-88
2023/06/23 00:16:06;;;;;;;9.63;6.78;;;16.30;99.90;;;;;;4991879;28;20029;-88
2023/06/23 00:18:35;;;;;;;9.75;7.40;;;16.30;99.90;;;;;;5012468;28;20049;-87
2023/06/23 00:21:05;;;;;;;8.80;7.53;;;16.30;99.90;;;;;;5007989;28;20038;-88
2023/06/23 00:23:31;;;;;;;7.32;6.43;;;16.30;99.90;;;;;;5010130;28;20022;-88
2023/06/23 00:25:58;;;;;;;8.57;6.10;;;16.30;99.90;;;;;;4995804;28;20069;-87
2023/06/23 00:28:24;;;;;;;8.00;6.43;;;16.30;99.90;;;;;;4994429;28;20389;-86
2023/06/23 00:30:51;;;;;;;8.75;6.53;;;16.40;99.90;;;;;;4991272;28;20042;-86
2023/06/23 00:33:18;;;;;;;8.73;5.97;;;16.30;99.90;;;;;;5011124;28;20434;-85
2023/06/23 00:35:46;;;;;;;9.10;6.00;;;16.40;99.90;;;;;;5008613;28;20029;-87
2023/06/23 00:38:13;;;;;;;7.07;6.13;;;16.40;99.90;;;;;;5026809;28;20080;-87
2023/06/23 00:40:39;;;;;;;9.95;6.70;;;16.50;99.90;;;;;;5023297;28;20495;-87
2023/06/23 00:43:06;;;;;;;8.88;6.35;;;16.40;99.90;;;;;;5042048;28;20026;-87
2023/06/23 00:45:31;;;;;;;6.88;5.15;;;16.50;99.90;;;;;;5010828;28;20038;-85
2023/06/23 00:47:57;;;;;;;7.85;5.65;;;16.50;99.90;;;;;;4991935;28;20391;-88
2023/06/23 00:50:24;;;;;;;9.52;7.03;;;16.50;99.90;;;;;;4993393;28;20482;-86
2023/06/23 00:52:51;;;;;;;9.07;6.68;;;16.50;99.90;;;;;;4991014;28;20133;-89
2023/06/23 00:55:28;;;;;;;6.90;5.05;;;16.50;99.90;;;;;;5009138;28;20487;-87
2023/06/23 00:57:58;;;;;;;10.60;7.35;;;16.50;99.90;;;;;;4994408;28;20109;-88
2023/06/23 01:00:27;;;;;;;7.85;6.53;;;16.50;99.90;;;;;;5038853;28;20526;-84
2023/06/23 01:02:59;;;;;;;8.30;6.13;;;16.50;99.90;;;;;;5007238;28;20037;-86
2023/06/23 01:05:36;;;;;;;8.80;6.13;;;16.50;99.90;;;;;;5022009;28;20458;-87
2023/06/23 01:08:20;;;;;;;7.78;5.07;;;16.40;99.90;;;;;;5005561;28;20026;-88
2023/06/23 01:10:51;;;;;;;8.57;6.60;;;16.50;99.90;;;;;;5010952;28;20405;-88
2023/06/23 01:13:22;;;;;;;8.60;5.85;;;16.40;99.90;;;;;;4991078;28;20121;-86
2023/06/23 01:15:57;;;;;;;7.93;5.80;;;16.40;99.90;;;;;;5024267;28;20034;-83
2023/06/23 01:18:36;;;;;;;8.90;6.28;;;16.40;99.90;;;;;;5010646;28;20033;-86
2023/06/23 01:21:05;;;;;;;9.02;6.50;;;16.40;99.90;;;;;;5024921;28;20041;-83
2023/06/23 01:23:57;;;;;;;7.25;5.13;;;16.40;99.90;;;;;;4990730;28;20044;-86
2023/06/23 01:26:53;;;;;;;8.32;5.65;;;16.40;99.90;;;;;;4997934;28;20081;-84
2023/06/23 01:29:28;;;;;;;7.88;6.15;;;16.30;99.90;;;;;;5024258;28;20125;-83
2023/06/23 01:32:18;;;;;;;7.90;6.68;;;16.30;99.90;;;;;;5006422;28;20046;-85
2023/06/23 01:34:46;;;;;;;8.52;5.55;;;16.20;99.90;;;;;;5006758;28;20355;-81
2023/06/23 01:37:19;;;;;;;7.63;5.93;;;16.20;99.90;;;;;;5010086;28;20095;-85
2023/06/23 01:39:53;;;;;;;8.05;5.95;;;16.10;99.90;;;;;;4989960;28;20045;-83
2023/06/23 01:42:22;;;;;;;10.23;7.20;;;16.00;99.90;;;;;;5008167;28;20472;-89
2023/06/23 01:44:55;;;;;;;7.72;6.75;;;16.00;99.90;;;;;;4992333;28;20045;-87
2023/06/23 01:47:26;;;;;;;9.75;6.63;;;15.90;99.90;;;;;;5006584;28;20030;-84
2023/06/23 01:49:54;;;;;;;8.18;6.18;;;15.80;99.90;;;;;;5009214;28;20034;-87
2023/06/23 01:52:21;;;;;;;8.45;6.00;;;15.80;99.90;;;;;;5023936;28;20037;-88
2023/06/23 01:54:49;;;;;;;9.40;7.35;;;15.70;99.90;;;;;;4992948;28;20034;-87
2023/06/23 01:57:17;;;;;;;8.95;7.38;;;15.60;99.90;;;;;;5025323;28;20026;-88
2023/06/23 01:59:45;;;;;;;8.45;6.97;;;15.70;99.90;;;;;;5021054;28;20125;-87
2023/06/23 02:02:14;;;;;;;9.23;6.95;;;15.60;99.90;;;;;;5023638;28;20120;-87
2023/06/23 02:04:44;;;;;;;8.80;7.30;;;15.60;99.90;;;;;;5006125;28;20032;-87
2023/06/23 02:07:11;;;;;;;8.53;7.53;;;15.50;99.90;;;;;;5039413;28;20065;-87
2023/06/23 02:09:40;;;;;;;8.05;6.95;;;15.50;99.90;;;;;;5007050;28;20029;-88
2023/06/23 02:12:06;;;;;;;11.55;8.40;;;15.50;99.90;;;;;;4992212;28;20025;-88
2023/06/23 02:14:35;;;;;;;13.80;9.45;;;15.50;99.90;;;;;;5004948;28;20414;-89
2023/06/23 02:17:03;;;;;;;8.75;7.35;;;15.50;99.90;;;;;;5008590;28;20022;-84
2023/06/23 02:19:31;;;;;;;9.98;8.50;;;15.40;99.90;;;;;;5024984;28;20465;-83
2023/06/23 02:21:58;;;;;;;11.98;8.65;;;15.40;99.90;;;;;;4990878;28;20038;-88
2023/06/23 02:24:25;;;;;;;13.10;7.90;;;15.40;99.90;;;;;;4988630;28;20041;-85
2023/06/23 02:26:51;;;;;;;11.25;8.95;;;15.40;99.90;;;;;;4987981;28;20105;-87
2023/06/23 02:29:18;;;;;;;11.88;9.90;;;15.30;99.90;;;;;;4988585;28;20038;-88
2023/06/23 02:31:44;;;;;;;10.63;8.30;;;15.30;99.90;;;;;;5019437;28;20025;-88
2023/06/23 02:34:10;;;;;;;10.98;9.68;;;15.30;99.90;;;;;;5005427;28;20479;-87
2023/06/23 02:36:47;;;;;;;10.48;9.10;;;15.30;99.90;;;;;;5005261;28;20080;-83
2023/06/23 02:39:17;;;;;;;10.50;8.38;;;15.30;99.90;;;;;;4988369;28;20034;-88
2023/06/23 02:41:46;;;;;;;9.95;8.05;;;15.30;99.90;;;;;;4988189;28;20068;-84
2023/06/23 02:44:15;;;;;;;11.40;8.20;;;15.30;99.90;;;;;;4989646;28;20037;-83
2023/06/23 02:46:46;;;;;;;12.15;9.35;;;15.20;99.90;;;;;;5005740;28;20033;-89
2023/06/23 02:49:16;;;;;;;11.05;8.55;;;15.20;99.90;;;;;;4987571;28;20117;-83
2023/06/23 02:51:45;;;;;;;10.65;8.05;;;15.20;99.90;;;;;;5022624;28;20046;-85
2023/06/23 02:54:17;;;;;;;12.27;9.18;;;15.20;99.90;;;;;;4989995;28;20116;-87
2023/06/23 02:56:45;;;;;;;10.50;8.85;;;15.20;99.90;;;;;;5008450;28;20026;-83
2023/06/23 02:59:15;;;;;;;9.95;8.25;;;15.20;99.90;;;;;;5007219;28;20023;-86
2023/06/23 03:01:46;;;;;;;11.23;9.25;;;15.20;99.90;;;;;;5019352;28;20060;-87
2023/06/23 03:04:12;;;;;;;9.73;8.73;;;15.20;99.90;;;;;;5007492;28;20026;-83
2023/06/23 03:06:39;;;;;;;11.70;8.77;;;15.20;99.90;;;;;;5001032;28;20168;-85
2023/06/23 03:09:09;;;;;;;13.48;9.57;;;15.20;99.90;;;;;;5007219;28;20498;-86
2023/06/23 03:11:36;;;;;;;11.85;9.95;;;15.20;99.90;;;;;;5008389;28;20462;-83
2023/06/23 03:14:02;;;;;;;10.05;8.57;;;15.20;99.90;;;;;;5023176;28;20501;-83
2023/06/23 03:16:37;;;;;;;11.60;9.02;;;15.20;99.90;;;;;;5006961;28;20029;-87
2023/06/23 03:19:28;;;;;;;12.30;10.98;;;15.20;99.90;;;;;;4989122;28;20470;-82
2023/06/23 03:22:01;;;;;;;10.85;9.02;;;15.20;99.90;;;;;;5007449;28;20061;-88
2023/06/23 03:24:31;;;;;;;11.35;9.75;;;15.10;99.90;;;;;;5006773;28;20129;-83
2023/06/23 03:26:58;;;;;;;12.65;10.02;;;15.20;99.90;;;;;;4988835;28;20029;-87
2023/06/23 03:29:29;;;;;;;12.10;10.05;;;15.10;99.90;;;;;;5006303;28;20064;-88
2023/06/23 03:31:58;;;;;;;12.40;10.00;;;15.10;99.90;;;;;;5038941;28;20034;-84
2023/06/23 03:34:39;;;;;;;13.25;10.60;;;15.10;99.90;;;;;;5020687;28;20501;-83
2023/06/23 03:37:07;;;;;;;17.95;12.95;;;15.10;99.90;;;;;;5021576;28;20033;-83
2023/06/23 03:39:38;;;;;;;14.55;12.07;;;15.10;99.90;;;;;;5039644;28;20757;-82
2023/06/23 03:42:04;;;;;;;13.43;11.98;;;15.10;99.90;;;;;;5022397;28;20046;-83
2023/06/23 03:44:46;;;;;;;16.45;12.85;;;15.10;99.90;;;;;;5023333;28;20026;-83
2023/06/23 03:47:16;;;;;;;13.13;11.73;;;15.10;99.90;;;;;;5039552;28;20122;-83
2023/06/23 03:49:45;;;;;;;13.95;11.25;;;15.10;99.90;;;;;;5036270;28;20034;-83
2023/06/23 03:52:14;;;;;;;14.57;12.95;;;15.10;99.90;;;;;;5036328;28;20058;-83
2023/06/23 03:54:42;;;;;;;15.00;12.43;;;15.10;99.90;;;;;;5006173;28;20108;-84
2023/06/23 03:57:13;;;;;;;12.82;11.10;;;15.10;99.90;;;;;;5021896;28;20040;-83
2023/06/23 03:59:40;;;;;;;13.68;11.43;;;15.10;99.90;;;;;;5036166;28;20389;-83
2023/06/23 04:02:08;;;;;;;14.73;11.95;;;15.10;99.90;;;;;;5004397;28;20057;-84
2023/06/23 04:04:35;;;;;;;14.38;12.20;;;15.10;99.90;;;;;;5003693;28;20034;-85
2023/06/23 04:07:03;;;;;;;15.10;11.93;;;15.10;99.90;;;;;;4988598;28;20022;-83
2023/06/23 04:09:30;;;;;;;14.30;12.77;;;15.10;99.90;;;;;;4987742;28;20703;-84
2023/06/23 04:11:58;;;;;;;15.40;11.93;;;15.10;99.90;;;;;;4990158;28;20026;-85
2023/06/23 04:14:26;;;;;;;13.23;11.25;;;15.10;99.90;;;;;;5021784;28;20057;-85
2023/06/23 04:16:54;;;;;;;14.52;13.00;;;15.10;99.90;;;;;;4989987;28;20042;-84
2023/06/23 04:19:27;;;;;;;16.98;14.32;;;15.10;99.90;;;;;;5019021;28;20040;-85
2023/06/23 04:21:55;;;;;;;19.40;14.80;;;15.10;99.90;;;;;;5036641;28;20398;-84
2023/06/23 04:24:22;;;;;;;18.05;14.57;;;15.20;99.90;;;;;;5022009;28;20069;-83
2023/06/23 04:26:52;;;;;;;17.88;15.52;;;15.10;99.90;;;;;;5006391;28;20113;-86
2023/06/23 04:29:19;;;;;;;20.58;15.27;;;15.20;99.90;;;;;;5022539;28;20209;-88
2023/06/23 04:31:50;;;;;;;15.85;14.15;;;15.20;99.90;;;;;;4986102;28;20105;-84
2023/06/23 04:34:16;;;;;;;17.55;14.38;;;15.20;99.90;;;;;;5007817;28;20026;-84
2023/06/23 04:37:06;;;;;;;12.30;10.90;;;15.20;99.90;;;;;;5005379;28;20052;-83
2023/06/23 04:39:59;;;;;;;14.45;12.95;;;15.20;99.90;;;;;;4998064;28;20047;-84
2023/06/23 04:42:41;;;;;;;15.65;13.88;;;15.20;99.90;;;;;;4990720;28;20030;-84
2023/06/23 04:45:09;;;;;;;18.67;14.27;;;15.30;99.90;;;;;;5042911;28;20026;-84
2023/06/23 04:47:38;;;;;;;19.55;15.30;;;15.30;99.90;;;;;;4992406;28;20026;-84
2023/06/23 04:50:08;;;;;;;18.83;15.80;;;15.40;99.90;;;;;;5011644;28;20069;-85
2023/06/23 04:52:35;;;;;;;;;;;15.40;99.90;;;;;;5023999;28;20042;-89
2023/06/23 04:55:06;;;;;;;18.58;15.90;;;15.60;99.90;;;;;;5037572;28;19952;-86
2023/06/23 04:57:36;;;;;;;17.60;15.55;;;15.60;99.90;;;;;;4992311;28;20037;-83
2023/06/23 05:00:07;;;;;;;20.77;17.40;;;15.80;99.90;;;;;;4992162;28;20516;-87
2023/06/23 05:02:34;;;;;;;20.95;18.25;;;15.90;99.90;;;;;;5024417;28;20040;-83
2023/06/23 05:05:00;;;;;;;27.17;20.60;;;15.90;99.90;;;;;;5009680;28;20053;-84
2023/06/23 05:07:28;;;;;;;24.58;20.23;;;15.90;99.90;;;;;;4990191;28;20030;-86
2023/06/23 05:09:57;;;;;;;22.50;19.40;;;16.10;99.90;;;;;;4989554;28;20037;-84
2023/06/23 05:12:24;;;;;;;22.95;20.27;;;16.20;99.90;;;;;;5008830;28;20034;-83
2023/06/23 05:14:53;;;;;;;28.88;22.88;;;16.30;99.90;;;;;;4993639;28;20066;-83
2023/06/23 05:17:22;;;;;;;27.83;22.90;;;16.40;99.90;;;;;;4992014;28;20492;-82
2023/06/23 05:19:48;;;;;;;29.55;24.77;;;16.50;99.90;;;;;;5040589;28;20030;-82
2023/06/23 05:22:18;;;;;;;30.35;24.95;;;16.50;99.90;;;;;;5023536;28;20502;-83
2023/06/23 05:24:49;;;;;;;;;;;16.60;99.90;;;;;;5007285;28;20037;-82
2023/06/23 05:27:18;;;;;;;34.63;27.02;;;16.60;99.90;;;;;;5023457;28;19933;-83
2023/06/23 05:29:47;;;;;;;31.20;24.40;;;16.60;99.90;;;;;;5008112;28;20034;-82
2023/06/23 05:32:15;;;;;;;28.98;23.38;;;16.70;99.90;;;;;;5021265;28;20292;-82
2023/06/23 05:34:45;;;;;;;29.73;23.30;;;16.80;99.90;;;;;;5022373;28;20091;-82
2023/06/23 05:37:12;;;;;;;25.98;20.67;;;16.80;99.90;;;;;;5037763;28;20450;-82
2023/06/23 05:39:39;;;;;;;23.15;18.83;;;17.10;99.90;;;;;;4990297;28;20088;-81
2023/06/23 05:42:06;;;;;;;24.17;19.60;;;17.10;99.90;;;;;;4989979;28;20018;-82
2023/06/23 05:44:33;;;;;;;26.88;22.23;;;17.30;99.90;;;;;;5019333;28;20026;-82
2023/06/23 05:47:00;;;;;;;25.38;19.83;;;17.30;99.90;;;;;;5024814;28;20041;-81
2023/06/23 05:49:29;;;;;;;25.65;22.10;;;17.40;99.90;;;;;;5040497;28;20387;-82
2023/06/23 05:52:00;;;;;;;25.23;21.83;;;17.40;99.90;;;;;;4985773;28;20136;-81
2023/06/23 05:54:30;;;;;;;26.65;21.33;;;17.30;99.90;;;;;;5009649;28;20021;-81
2023/06/23 05:56:57;;;;;;;;;;;17.40;99.90;;;;;;4989329;28;20025;-83
2023/06/23 05:59:25;;;;;;;22.95;20.20;;;17.30;99.90;;;;;;5004735;28;20322;-81
2023/06/23 06:01:58;;;;;;;23.15;19.58;;;17.40;99.90;;;;;;4989287;28;20441;-81
2023/06/23 06:04:29;;;;;;;24.45;20.65;;;17.60;99.90;;;;;;5008934;28;20305;-82
2023/06/23 06:06:57;;;;;;;23.65;19.70;;;17.70;99.90;;;;;;5038771;28;20065;-83
2023/06/23 06:09:26;;;;;;;23.45;19.75;;;17.80;99.90;;;;;;4990519;28;20124;-80
2023/06/23 06:11:54;;;;;;;21.00;17.20;;;17.80;99.90;;;;;;5038194;28;20038;-82
2023/06/23 06:14:22;;;;;;;23.48;19.90;;;18.00;99.90;;;;;;5038827;28;20073;-82
2023/06/23 06:16:50;;;;;;;22.05;19.25;;;18.00;99.90;;;;;;5002144;28;20205;-82
2023/06/23 06:19:20;;;;;;;18.15;16.05;;;18.00;99.90;;;;;;5019165;28;20133;-82
2023/06/23 06:21:47;;;;;;;18.77;16.52;;;18.30;99.90;;;;;;5007671;28;20080;-82
2023/06/23 06:24:15;;;;;;;24.48;19.30;;;18.30;99.90;;;;;;5008203;28;20030;-83
2023/06/23 06:26:43;;;;;;;20.95;17.92;;;18.00;99.90;;;;;;5007476;28;20092;-83
2023/06/23 06:29:11;;;;;;;20.25;16.70;;;18.00;99.90;;;;;;5005639;28;20463;-85
2023/06/23 06:31:38;;;;;;;19.33;16.60;;;18.20;99.90;;;;;;5025475;28;20030;-84
2023/06/23 06:34:06;;;;;;;21.20;17.88;;;18.50;99.90;;;;;;5023930;28;20021;-84
2023/06/23 06:36:35;;;;;;;18.40;16.40;;;18.60;99.90;;;;;;5025081;28;20044;-85
2023/06/23 06:39:02;;;;;;;19.33;17.23;;;18.70;99.90;;;;;;5008038;28;20022;-83
2023/06/23 06:41:30;;;;;;;23.08;18.80;;;18.70;99.90;;;;;;5005868;28;20665;-83
2023/06/23 06:43:57;;;;;;;21.95;18.08;;;18.60;99.90;;;;;;4990266;28;20446;-83
2023/06/23 06:46:26;;;;;;;18.95;16.98;;;18.60;99.90;;;;;;5006298;28;20144;-83
2023/06/23 06:48:53;;;;;;;19.23;16.70;;;18.80;99.90;;;;;;5025105;28;20033;-84
2023/06/23 06:51:19;;;;;;;19.23;16.67;;;18.70;99.90;;;;;;5023163;28;20471;-84
2023/06/23 06:53:48;;;;;;;19.55;16.58;;;18.80;99.90;;;;;;5005077;28;20054;-84
2023/06/23 06:56:14;;;;;;;17.67;14.90;;;18.90;99.90;;;;;;5013942;28;20037;-83
2023/06/23 06:58:41;;;;;;;20.67;16.83;;;18.90;99.90;;;;;;5020625;28;20525;-83
2023/06/23 07:01:07;;;;;;;18.25;15.38;;;19.00;99.90;;;;;;5017680;28;20138;-84
2023/06/23 07:03:34;;;;;;;22.63;18.13;;;19.30;99.90;;;;;;5003341;28;20081;-84
2023/06/23 07:06:00;;;;;;;20.88;18.17;;;19.20;99.90;;;;;;5019369;28;20113;-84
2023/06/23 07:08:26;;;;;;;21.67;17.52;;;19.10;99.90;;;;;;5015374;28;20434;-83
2023/06/23 07:10:52;;;;;;;19.13;16.48;;;19.20;99.90;;;;;;5015117;28;20097;-84
2023/06/23 07:13:18;;;;;;;21.52;16.98;;;19.40;99.90;;;;;;5020147;28;20566;-84
2023/06/23 07:15:44;;;;;;;18.30;16.30;;;19.30;99.90;;;;;;5034986;28;20038;-84
2023/06/23 07:18:10;;;;;;;19.95;16.80;;;19.40;99.90;;;;;;5019489;28;20092;-84
2023/06/23 07:20:35;;;;;;;21.02;17.52;;;19.40;99.90;;;;;;5019676;28;20046;-83
2023/06/23 07:23:01;;;;;;;19.55;17.05;;;19.70;99.90;;;;;;5019926;28;20079;-84
2023/06/23 07:25:27;;;;;;;17.23;15.13;;;19.70;99.90;;;;;;5036305;28;20041;-84
2023/06/23 07:27:52;;;;;;;17.25;14.43;;;20.00;99.90;;;;;;5018939;28;20049;-84
2023/06/23 07:30:18;;;;;;;19.58;16.30;;;20.30;99.90;;;;;;5020165;28;20034;-84
2023/06/23 07:32:46;;;;;;;18.13;15.77;;;19.80;99.90;;;;;;5021268;28;20026;-84
2023/06/23 07:35:13;;;;;;;18.55;15.00;;;20.00;99.90;;;;;;4985131;28;20480;-84
2023/06/23 07:37:39;;;;;;;17.10;15.15;;;20.00;99.90;;;;;;5034113;28;20479;-84
2023/06/23 07:40:06;;;;;;;16.48;13.60;;;20.30;99.90;;;;;;5019091;28;20403;-82
2023/06/23 07:42:32;;;;;;;19.35;14.95;;;20.40;99.90;;;;;;5035840;28;20094;-85
2023/06/23 07:44:58;;;;;;;15.85;13.77;;;20.50;99.90;;;;;;5036729;28;20121;-84
2023/06/23 07:47:23;;;;;;;9.82;8.82;;;20.40;99.90;;;;;;4997258;28;20040;-85
2023/06/23 07:49:49;;;;;;;11.02;9.68;;;20.80;99.90;;;;;;4983690;28;20038;-85
2023/06/23 07:52:15;;;;;;;12.68;10.45;;;20.90;99.90;;;;;;5003024;28;20125;-85
2023/06/23 07:54:41;;;;;;;11.25;9.60;;;21.00;99.90;;;;;;5018088;28;20080;-85
2023/06/23 07:57:08;;;;;;;9.65;7.88;;;21.00;99.90;;;;;;4984346;28;20103;-85
2023/06/23 07:59:37;;;;;;;7.63;6.82;;;21.20;99.90;;;;;;4989464;28;20361;-85
2023/06/23 08:02:03;;;;;;;9.13;8.15;;;21.30;99.90;;;;;;5035088;28;20053;-85
2023/06/23 08:04:29;;;;;;;7.53;6.57;;;21.40;99.90;;;;;;5019731;28;20478;-86
2023/06/23 08:06:55;;;;;;;7.15;5.93;;;21.20;99.90;;;;;;5001055;28;20117;-85
2023/06/23 08:09:20;;;;;;;5.00;4.18;;;21.20;99.90;;;;;;5018067;28;20032;-86
2023/06/23 08:11:46;;;;;;;3.90;3.45;;;21.20;99.90;;;;;;5019358;28;20101;-85
2023/06/23 08:14:12;;;;;;;4.00;3.60;;;21.40;99.90;;;;;;5002532;28;20042;-86
2023/06/23 08:16:38;;;;;;;4.20;3.08;;;21.50;99.90;;;;;;4994140;28;20034;-85
2023/06/23 08:19:04;;;;;;;5.15;4.20;;;21.80;99.90;;;;;;5008052;28;20030;-86
2023/06/23 08:21:30;;;;;;;7.75;5.03;;;21.90;99.90;;;;;;5006705;28;20399;-85
2023/06/23 08:23:57;;;;;;;5.18;4.25;;;21.70;99.90;;;;;;4991799;28;20033;-86
2023/06/23 08:26:23;;;;;;;5.55;3.65;;;21.40;99.90;;;;;;5019890;28;20136;-86
2023/06/23 08:28:48;;;;;;;5.57;3.75;;;21.70;99.90;;;;;;4989018;28;20114;-85
2023/06/23 08:31:14;;;;;;;5.55;3.70;;;21.70;99.90;;;;;;5004937;28;20459;-86
2023/06/23 08:33:40;;;;;;;5.00;4.50;;;22.10;99.90;;;;;;4989124;28;20029;-86
2023/06/23 08:36:06;;;;;;;4.63;3.40;;;22.10;99.90;;;;;;5038215;28;20398;-85
2023/06/23 08:38:32;;;;;;;5.50;4.43;;;22.30;99.90;;;;;;4999283;28;20083;-84
2023/06/23 08:40:58;;;;;;;6.28;5.28;;;21.80;99.90;;;;;;5003761;28;20045;-85
2023/06/23 08:43:27;;;;;;;5.45;3.88;;;21.40;99.90;;;;;;5023777;28;20022;-86
2023/06/23 08:45:59;;;;;;;3.67;2.72;;;22.00;99.90;;;;;;4990820;28;20022;-87
2023/06/23 08:48:30;;;;;;;4.32;3.13;;;22.60;99.90;;;;;;4988634;28;20099;-86
2023/06/23 08:51:01;;;;;;;4.18;3.05;;;22.40;99.90;;;;;;4989174;28;20042;-88
2023/06/23 08:53:27;;;;;;;6.07;4.60;;;22.60;99.90;;;;;;4991469;28;20385;-88
2023/06/23 08:55:55;;;;;;;6.47;5.13;;;22.70;99.90;;;;;;5020535;28;20525;-87
2023/06/23 08:58:22;;;;;;;4.75;3.60;;;22.70;99.90;;;;;;5007023;28;20098;-88
2023/06/23 09:00:51;;;;;;;6.30;2.75;;;22.60;99.90;;;;;;5002361;28;20038;-87
2023/06/23 09:03:17;;;;;;;5.35;3.60;;;22.90;99.90;;;;;;4988007;28;20072;-91
2023/06/23 09:05:43;;;;;;;3.60;2.50;;;22.70;99.90;;;;;;5004940;28;20083;-88
2023/06/23 09:08:10;;;;;;;3.75;2.70;;;23.00;99.90;;;;;;5005500;28;20112;-87
2023/06/23 09:10:36;;;;;;;5.18;3.17;;;23.00;99.90;;;;;;4986660;28;20331;-89
2023/06/23 09:13:14;;;;;;;5.22;3.35;;;23.10;99.90;;;;;;5006811;28;20029;-88
2023/06/23 09:15:44;;;;;;;4.93;2.70;;;22.80;99.90;;;;;;5017350;28;20068;-87
2023/06/23 09:18:15;;;;;;;4.38;2.90;;;23.10;99.90;;;;;;5006875;28;20034;-88
2023/06/23 09:20:46;;;;;;;3.70;2.75;;;23.00;99.90;;;;;;4990360;28;20298;-88
2023/06/23 09:23:22;;;;;;;4.05;2.47;;;23.20;99.90;;;;;;5018226;28;20049;-88
2023/06/23 09:25:53;;;;;;;4.32;1.92;;;23.30;99.90;;;;;;4988733;28;20021;-89
2023/06/23 09:28:35;;;;;;;4.70;2.22;;;23.20;99.90;;;;;;5018727;28;20030;-85
2023/06/23 09:31:13;;;;;;;2.63;1.48;;;23.50;99.90;;;;;;5002420;28;20077;-88
2023/06/23 09:33:50;;;;;;;3.20;2.85;;;23.30;99.90;;;;;;5005786;28;20032;-88
2023/06/23 09:36:16;;;;;;;4.45;2.40;;;23.40;99.90;;;;;;4982715;28;20030;-89
2023/06/23 09:38:42;;;;;;;4.13;1.52;;;23.30;99.90;;;;;;4985537;28;20099;-87
2023/06/23 09:41:16;;;;;;;4.10;2.38;;;23.80;99.90;;;;;;4987498;28;20394;-89
2023/06/23 09:43:45;;;;;;;3.00;1.83;;;23.60;99.90;;;;;;5004322;28;20129;-88
2023/06/23 09:46:12;;;;;;;3.33;1.92;;;23.60;99.90;;;;;;4990340;28;20022;-88
2023/06/23 09:48:38;;;;;;;3.60;1.58;;;23.70;99.90;;;;;;4986082;28;20033;-89
2023/06/23 09:51:09;;;;;;;3.90;1.20;;;24.20;99.90;;;;;;4982103;28;20049;-87
2023/06/23 09:53:40;;;;;;;2.20;1.30;;;23.80;99.90;;;;;;5002085;28;20037;-89
2023/06/23 09:56:13;;;;;;;2.85;1.23;;;23.60;99.90;;;;;;5003631;28;20033;-88
2023/06/23 09:58:40;;;;;;;2.45;1.02;;;23.70;99.90;;;;;;5023490;28;20044;-88
2023/06/23 10:01:11;;;;;;;3.15;1.55;;;23.90;99.90;;;;;;4987498;28;20139;-87
2023/06/23 10:03:48;;;;;;;3.90;2.17;;;24.00;99.90;;;;;;5002131;28;20099;-86
2023/06/23 10:06:25;;;;;;;2.40;1.40;;;24.00;99.90;;;;;;5022585;28;20034;-86
2023/06/23 10:08:55;;;;;;;3.00;1.27;;;24.00;99.90;;;;;;4983831;28;20030;-88
2023/06/23 10:11:34;;;;;;;3.15;0.90;;;24.30;99.90;;;;;;5021714;28;20463;-86
2023/06/23 10:14:05;;;;;;;2.28;1.35;;;24.50;99.90;;;;;;5022042;28;20049;-87
2023/06/23 10:16:32;;;;;;;3.10;1.70;;;24.60;99.90;;;;;;4984615;28;20057;-89
2023/06/23 10:19:00;;;;;;;2.90;1.00;;;24.30;99.90;;;;;;4985497;28;20097;-88
2023/06/23 10:21:27;;;;;;;2.60;1.00;;;24.30;99.90;;;;;;5004552;28;20125;-88
2023/06/23 10:23:56;;;;;;;4.43;1.33;;;24.50;99.90;;;;;;5003061;28;20029;-88
2023/06/23 10:26:23;;;;;;;2.75;1.20;;;24.50;99.90;;;;;;5021955;28;20042;-87
2023/06/23 10:28:51;;;;;;;3.78;1.25;;;24.90;99.90;;;;;;4983447;28;20049;-89
2023/06/23 10:31:18;;;;;;;2.95;1.30;;;25.10;99.90;;;;;;5000287;28;20030;-89
2023/06/23 10:33:47;;;;;;;2.90;1.40;;;24.60;99.90;;;;;;4984066;28;20072;-90
2023/06/23 10:36:18;;;;;;;3.60;1.70;;;24.40;99.90;;;;;;5005261;28;20053;-90
2023/06/23 10:38:48;;;;;;;2.10;1.30;;;24.60;99.90;;;;;;5003820;28;20171;-89
2023/06/23 10:41:14;;;;;;;2.15;1.23;;;24.70;99.90;;;;;;4983658;28;20044;-89
2023/06/23 10:43:46;;;;;;;3.85;1.27;;;25.00;99.90;;;;;;4990503;28;20398;-88
2023/06/23 10:46:13;;;;;;;2.58;1.25;;;24.90;99.90;;;;;;5002053;28;20037;-89
2023/06/23 10:48:39;;;;;;;2.03;0.80;;;24.60;99.90;;;;;;4988238;28;20630;-90
2023/06/23 10:51:06;;;;;;;1.75;0.90;;;24.90;99.90;;;;;;5003932;28;20057;-89
2023/06/23 10:53:55;;;;;;;2.08;0.90;;;24.70;99.90;;;;;;4985237;28;20053;-91
2023/06/23 10:56:34;;;;;;;2.30;1.02;;;24.90;99.90;;;;;;5004466;28;20036;-87
2023/06/23 10:59:27;;;;;;;3.38;1.40;;;24.90;99.90;;;;;;5004135;28;20501;-93
2023/06/23 11:02:07;;;;;;;3.70;1.10;;;24.50;99.90;;;;;;4998906;28;20204;-90
2023/06/23 11:04:38;;;;;;;2.05;1.00;;;24.70;99.90;;;;;;5003759;28;20570;-90
2023/06/23 11:07:06;;;;;;;2.15;1.02;;;24.80;99.90;;;;;;5035226;28;20073;-88
2023/06/23 11:09:54;;;;;;;1.85;0.95;;;24.90;99.90;;;;;;5005301;28;20116;-91
2023/06/23 11:12:48;;;;;;;1.92;0.80;;;25.10;99.90;;;;;;5021834;28;20034;-93
2023/06/23 11:15:16;;;;;;;2.88;0.80;;;24.90;99.90;;;;;;5004176;28;20034;-89
2023/06/23 11:18:04;;;;;;;2.40;0.90;;;24.80;99.90;;;;;;5019391;28;20113;-89
2023/06/23 11:20:42;;;;;;;1.73;0.65;;;25.10;99.90;;;;;;4997970;28;20049;-87
2023/06/23 11:23:13;;;;;;;1.60;0.50;;;25.60;99.90;;;;;;4983390;28;20042;-89
2023/06/23 11:25:50;;;;;;;1.45;0.70;;;26.00;99.90;;;;;;5000045;28;20496;-88
2023/06/23 11:28:34;;;;;;;3.30;0.80;;;26.00;99.90;;;;;;4983984;28;20483;-86
2023/06/23 11:31:17;;;;;;;2.15;0.80;;;25.80;99.90;;;;;;5001289;28;20056;-89
2023/06/23 11:33:52;;;;;;;1.75;0.98;;;25.50;99.90;;;;;;5004911;28;20034;-91
2023/06/23 11:36:19;;;;;;;3.33;1.10;;;25.60;99.90;;;;;;5017515;28;20029;-92
2023/06/23 11:38:45;;;;;;;3.17;0.80;;;25.80;99.90;;;;;;5039404;28;20057;-89
2023/06/23 11:41:23;;;;;;;2.22;0.82;;;24.50;99.90;;;;;;4983311;28;20034;-86
2023/06/23 11:43:49;;;;;;;1.95;0.80;;;25.00;99.90;;;;;;4984687;28;20030;-87
2023/06/23 11:46:15;;;;;;;1.77;0.77;;;25.70;99.90;;;;;;4989903;28;20029;-92
2023/06/23 11:48:42;;;;;;;2.58;0.80;;;25.60;99.90;;;;;;4986822;28;20053;-87
2023/06/23 11:51:16;;;;;;;3.53;0.80;;;25.80;99.90;;;;;;4982794;28;20037;-92
2023/06/23 11:53:42;;;;;;;1.75;0.73;;;25.90;99.90;;;;;;4987271;28;20026;-92
2023/06/23 11:56:19;;;;;;;1.92;0.82;;;25.60;99.90;;;;;;4985219;28;20505;-91
2023/06/23 11:58:57;;;;;;;1.90;0.90;;;25.40;99.90;;;;;;5017757;28;20371;-89
2023/06/23 12:01:23;;;;;;;2.25;0.88;;;25.50;99.90;;;;;;4988272;28;20498;-87
2023/06/23 12:03:50;;;;;;;1.73;0.70;;;25.60;99.90;;;;;;4982537;28;20022;-92
2023/06/23 12:06:17;;;;;;;2.47;0.65;;;25.80;99.90;;;;;;4987323;28;20049;-90
2023/06/23 12:08:50;;;;;;;1.65;0.80;;;25.90;99.90;;;;;;4998722;28;20026;-90
2023/06/23 12:11:22;;;;;;;2.17;0.95;;;25.60;99.90;;;;;;4986818;28;20092;-92
2023/06/23 12:13:52;;;;;;;2.00;0.82;;;25.90;99.90;;;;;;4982470;28;20463;-91
2023/06/23 12:16:18;;;;;;;2.60;0.70;;;25.50;99.90;;;;;;4985112;28;20042;-94
2023/06/23 12:18:50;;;;;;;4.55;0.70;;;25.90;99.90;;;;;;4980233;28;20070;-90
2023/06/23 12:21:17;;;;;;;1.67;0.68;;;26.10;99.90;;;;;;4984670;28;20057;-89
2023/06/23 12:23:46;;;;;;;2.17;0.73;;;26.10;99.90;;;;;;4997721;28;20537;-88
2023/06/23 12:26:13;;;;;;;1.23;0.60;;;25.80;99.90;;;;;;4982412;28;20044;-88
2023/06/23 12:28:39;;;;;;;1.90;0.70;;;26.00;99.90;;;;;;4984979;28;20142;-87
2023/06/23 12:31:06;;;;;;;1.00;0.50;;;26.10;99.90;;;;;;4981365;28;20041;-89
2023/06/23 12:33:35;;;;;;;2.13;0.70;;;26.30;99.90;;;;;;4984580;28;20053;-91
2023/06/23 12:36:07;;;;;;;1.60;0.60;;;26.30;99.90;;;;;;4983906;28;20076;-90
2023/06/23 12:38:34;;;;;;;2.25;0.80;;;26.10;99.90;;;;;;5036446;28;20026;-89
2023/06/23 12:41:16;;;;;;;2.25;0.60;;;25.60;99.90;;;;;;4989130;28;20495;-88
2023/06/23 12:43:42;;;;;;;2.10;0.70;;;25.20;99.90;;;;;;4983421;28;20116;-89
2023/06/23 12:46:12;;;;;;;2.78;0.70;;;25.70;99.90;;;;;;4985230;28;20078;-90
2023/06/23 12:48:39;;;;;;;1.85;0.60;;;26.30;99.90;;;;;;4982598;28;20120;-89
2023/06/23 12:51:05;;;;;;;2.42;0.70;;;26.70;99.90;;;;;;4986350;28;20465;-90
2023/06/23 12:53:31;;;;;;;1.60;0.80;;;26.30;99.90;;;;;;4983043;28;20033;-89